Orangeburg Municipal Airport
KOGB : now visible

Airfield :











YOU CAN JOIN US ON...

 
LOGIN :

Register | Disclaimer

   EN    FR    IT 

 









Legend :    VFR   Marginal VFR   IFR   Intensive IFR   Very Intensive IFR
Visi :
Ceiling :
>= 8 km
>= 3000ft
5 to 8 km
1000 to 3000 ft
1500m to 5 km
500 to 1000 ft
800 to 1500m
200 to 500 ft
< 800m
< 200 ft
Symbols :   Thunderstorms  Fog  Heavy snow  Heavy precipitations  Wind > 20 kt






- Airport Elevation : 195 ft


KOGB - Orangeburg Municipal

CURRENT METAR :
  • 291753Z AUTO 21010KT 10SM FEW025 SCT032 30/22 A3003 RMK AO2 SLP165 60000 T03000217 10300 20244 58012

EXPIRED METARs :
  • 291653Z AUTO 20008KT 10SM CLR 28/22 A3004 RMK AO2 LTG DSNT NE RAB02E20 SLP171 P0000 T02830217
  • 291553Z AUTO 20010KT 10SM SCT025 BKN030 BKN047 28/21 A3006 RMK AO2 LTG DSNT N SLP175 T02780211
  • 291503Z AUTO 19008KT 10SM FEW020 SCT029 28/22 A3006 RMK AO2 LTG DSNT W AND NW T02780217
  • 291453Z AUTO 21008KT 10SM FEW020 BKN029 28/22 A3006 RMK AO2 LTG DSNT W SLP177 T02780217 58006

TAF KOGB
Valid from the 29 at 18:00 until the 30 at 18:00 UTC


291741Z 2918/3018 VRB03KT P6SM VCSH SCT030 BKN060
TEMPO 2919/2923 3SM TSRA OVC030CB
FM300200 VRB03KT P6SM VCSH OVC040
FM301000 VRB03KT 4SM BR OVC007
FM301400 27005KT P6SM SCT250
KZJX FIR / North America



MET'MAP, your aeronautical weather chart ! - Copyright ORBIFLY December 2007 - Disclaimer

ORBIFLY MET'MAP TEAM :

Programming & Development : Alexandra Zaïnal
Concept & original design : Baudouin d'Aumeries
Assistance for programming : Marc-Olivier Méhu
Technical & hardware support : Manuel Goepfert

Contact : metmap@orbifly.com




SOURCES & CREDITS :

   NOAA       Earth
Advisory